sensor_id;sensor_type;location;lat;lon;timestamp;P1;durP1;ratioP1;P2;durP2;ratioP2
74471;SDS011;62920;53.572;10.050;2023-02-02T00:00:45;20.75;;;2.50;;
74471;SDS011;62920;53.572;10.050;2023-02-02T00:03:11;22.10;;;2.95;;
74471;SDS011;62920;53.572;10.050;2023-02-02T00:05:36;16.10;;;2.35;;
74471;SDS011;62920;53.572;10.050;2023-02-02T00:08:02;17.67;;;2.92;;
74471;SDS011;62920;53.572;10.050;2023-02-02T00:10:27;16.65;;;2.08;;
74471;SDS011;62920;53.572;10.050;2023-02-02T00:12:52;17.88;;;2.45;;
74471;SDS011;62920;53.572;10.050;2023-02-02T00:15:18;17.48;;;2.60;;
74471;SDS011;62920;53.572;10.050;2023-02-02T00:17:43;25.17;;;2.40;;
74471;SDS011;62920;53.572;10.050;2023-02-02T00:20:09;15.80;;;2.25;;
74471;SDS011;62920;53.572;10.050;2023-02-02T00:22:34;11.32;;;1.90;;
74471;SDS011;62920;53.572;10.050;2023-02-02T00:25:00;11.50;;;1.65;;
74471;SDS011;62920;53.572;10.050;2023-02-02T00:27:25;10.93;;;1.70;;
74471;SDS011;62920;53.572;10.050;2023-02-02T00:29:51;15.18;;;1.67;;
74471;SDS011;62920;53.572;10.050;2023-02-02T00:32:18;14.68;;;2.35;;
74471;SDS011;62920;53.572;10.050;2023-02-02T00:34:43;17.33;;;2.13;;
74471;SDS011;62920;53.572;10.050;2023-02-02T00:37:09;16.48;;;2.13;;
74471;SDS011;62920;53.572;10.050;2023-02-02T00:39:34;14.95;;;2.58;;
74471;SDS011;62920;53.572;10.050;2023-02-02T00:42:00;18.90;;;2.40;;
74471;SDS011;62920;53.572;10.050;2023-02-02T00:44:25;22.48;;;2.88;;
74471;SDS011;62920;53.572;10.050;2023-02-02T00:47:09;14.88;;;2.03;;
74471;SDS011;62920;53.572;10.050;2023-02-02T00:49:34;12.80;;;1.85;;
74471;SDS011;62920;53.572;10.050;2023-02-02T00:52:00;16.20;;;2.65;;
74471;SDS011;62920;53.572;10.050;2023-02-02T00:54:26;17.25;;;1.77;;
74471;SDS011;62920;53.572;10.050;2023-02-02T00:56:51;16.15;;;2.45;;
74471;SDS011;62920;53.572;10.050;2023-02-02T00:59:17;10.32;;;1.70;;
74471;SDS011;62920;53.572;10.050;2023-02-02T01:01:42;21.60;;;2.63;;
74471;SDS011;62920;53.572;10.050;2023-02-02T01:04:07;13.55;;;1.63;;
74471;SDS011;62920;53.572;10.050;2023-02-02T01:06:33;16.63;;;1.95;;
74471;SDS011;62920;53.572;10.050;2023-02-02T01:08:58;10.85;;;2.17;;
74471;SDS011;62920;53.572;10.050;2023-02-02T01:11:24;15.25;;;2.25;;
74471;SDS011;62920;53.572;10.050;2023-02-02T01:13:49;15.88;;;1.92;;
74471;SDS011;62920;53.572;10.050;2023-02-02T01:16:15;14.50;;;1.55;;
74471;SDS011;62920;53.572;10.050;2023-02-02T01:18:40;16.45;;;2.10;;
74471;SDS011;62920;53.572;10.050;2023-02-02T01:21:06;18.33;;;2.25;;
74471;SDS011;62920;53.572;10.050;2023-02-02T01:23:35;13.30;;;1.48;;
74471;SDS011;62920;53.572;10.050;2023-02-02T01:26:01;9.48;;;1.48;;
74471;SDS011;62920;53.572;10.050;2023-02-02T01:28:29;22.30;;;2.30;;
74471;SDS011;62920;53.572;10.050;2023-02-02T01:30:55;15.43;;;2.13;;
74471;SDS011;62920;53.572;10.050;2023-02-02T01:33:21;10.88;;;1.75;;
74471;SDS011;62920;53.572;10.050;2023-02-02T01:35:48;13.23;;;2.30;;
74471;SDS011;62920;53.572;10.050;2023-02-02T01:38:18;12.73;;;2.03;;
74471;SDS011;62920;53.572;10.050;2023-02-02T01:40:47;15.57;;;1.95;;
74471;SDS011;62920;53.572;10.050;2023-02-02T01:43:18;21.20;;;1.70;;
74471;SDS011;62920;53.572;10.050;2023-02-02T01:45:46;13.23;;;1.83;;
74471;SDS011;62920;53.572;10.050;2023-02-02T01:48:11;16.35;;;2.17;;
74471;SDS011;62920;53.572;10.050;2023-02-02T01:50:37;19.85;;;1.90;;
74471;SDS011;62920;53.572;10.050;2023-02-02T01:53:03;17.17;;;1.95;;
74471;SDS011;62920;53.572;10.050;2023-02-02T01:55:30;20.15;;;2.17;;
74471;SDS011;62920;53.572;10.050;2023-02-02T01:57:58;16.45;;;1.88;;
74471;SDS011;62920;53.572;10.050;2023-02-02T02:00:26;14.85;;;2.13;;
74471;SDS011;62920;53.572;10.050;2023-02-02T02:02:56;15.63;;;1.65;;
74471;SDS011;62920;53.572;10.050;2023-02-02T02:05:29;11.70;;;1.33;;
74471;SDS011;62920;53.572;10.050;2023-02-02T02:08:04;15.02;;;2.20;;
74471;SDS011;62920;53.572;10.050;2023-02-02T02:10:34;18.67;;;1.65;;
74471;SDS011;62920;53.572;10.050;2023-02-02T02:13:00;10.05;;;1.40;;
74471;SDS011;62920;53.572;10.050;2023-02-02T02:15:25;8.80;;;1.20;;
74471;SDS011;62920;53.572;10.050;2023-02-02T02:20:53;5.45;;;0.70;;
74471;SDS011;62920;53.572;10.050;2023-02-02T02:23:52;8.55;;;1.20;;
74471;SDS011;62920;53.572;10.050;2023-02-02T02:27:24;8.50;;;1.40;;
74471;SDS011;62920;53.572;10.050;2023-02-02T02:30:03;15.93;;;1.52;;
74471;SDS011;62920;53.572;10.050;2023-02-02T02:37:39;23.95;;;2.20;;
74471;SDS011;62920;53.572;10.050;2023-02-02T02:42:44;8.35;;;1.50;;
74471;SDS011;62920;53.572;10.050;2023-02-02T02:45:13;7.45;;;1.15;;
74471;SDS011;62920;53.572;10.050;2023-02-02T02:47:39;17.90;;;1.83;;
74471;SDS011;62920;53.572;10.050;2023-02-02T02:52:31;12.48;;;1.42;;
74471;SDS011;62920;53.572;10.050;2023-02-02T02:54:57;13.50;;;1.60;;
74471;SDS011;62920;53.572;10.050;2023-02-02T03:08:51;11.60;;;1.15;;
74471;SDS011;62920;53.572;10.050;2023-02-02T03:11:18;13.27;;;1.95;;
74471;SDS011;62920;53.572;10.050;2023-02-02T03:13:43;15.05;;;1.65;;
74471;SDS011;62920;53.572;10.050;2023-02-02T03:16:09;9.98;;;1.73;;
74471;SDS011;62920;53.572;10.050;2023-02-02T03:18:35;9.52;;;1.40;;
74471;SDS011;62920;53.572;10.050;2023-02-02T03:21:00;11.77;;;1.75;;
74471;SDS011;62920;53.572;10.050;2023-02-02T03:23:26;20.27;;;1.50;;
74471;SDS011;62920;53.572;10.050;2023-02-02T03:25:52;7.97;;;1.42;;
74471;SDS011;62920;53.572;10.050;2023-02-02T03:28:18;12.63;;;1.60;;
74471;SDS011;62920;53.572;10.050;2023-02-02T03:30:45;17.33;;;1.70;;
74471;SDS011;62920;53.572;10.050;2023-02-02T03:33:11;9.13;;;1.00;;
74471;SDS011;62920;53.572;10.050;2023-02-02T03:35:37;13.02;;;1.60;;
74471;SDS011;62920;53.572;10.050;2023-02-02T03:38:02;11.90;;;1.30;;
74471;SDS011;62920;53.572;10.050;2023-02-02T03:40:28;10.15;;;1.02;;
74471;SDS011;62920;53.572;10.050;2023-02-02T03:42:53;14.00;;;1.38;;
74471;SDS011;62920;53.572;10.050;2023-02-02T03:45:19;11.52;;;1.20;;
74471;SDS011;62920;53.572;10.050;2023-02-02T03:47:45;11.60;;;1.20;;
74471;SDS011;62920;53.572;10.050;2023-02-02T03:50:10;10.57;;;1.80;;
74471;SDS011;62920;53.572;10.050;2023-02-02T03:52:35;12.80;;;1.88;;
74471;SDS011;62920;53.572;10.050;2023-02-02T03:55:01;5.80;;;1.20;;
74471;SDS011;62920;53.572;10.050;2023-02-02T03:57:26;10.68;;;1.45;;
74471;SDS011;62920;53.572;10.050;2023-02-02T03:59:52;15.50;;;1.65;;
74471;SDS011;62920;53.572;10.050;2023-02-02T04:02:17;16.33;;;1.88;;
74471;SDS011;62920;53.572;10.050;2023-02-02T04:04:42;11.35;;;1.23;;
74471;SDS011;62920;53.572;10.050;2023-02-02T04:07:08;13.55;;;1.30;;
74471;SDS011;62920;53.572;10.050;2023-02-02T04:09:33;10.15;;;1.13;;
74471;SDS011;62920;53.572;10.050;2023-02-02T04:11:59;6.25;;;0.75;;
74471;SDS011;62920;53.572;10.050;2023-02-02T04:14:24;6.15;;;1.13;;
74471;SDS011;62920;53.572;10.050;2023-02-02T04:16:49;14.45;;;1.20;;
74471;SDS011;62920;53.572;10.050;2023-02-02T04:19:15;9.50;;;1.60;;
74471;SDS011;62920;53.572;10.050;2023-02-02T04:21:41;6.93;;;0.93;;
74471;SDS011;62920;53.572;10.050;2023-02-02T04:24:09;12.02;;;1.08;;
74471;SDS011;62920;53.572;10.050;2023-02-02T04:26:35;9.85;;;1.27;;
74471;SDS011;62920;53.572;10.050;2023-02-02T04:29:00;11.55;;;1.35;;
74471;SDS011;62920;53.572;10.050;2023-02-02T04:31:26;8.45;;;1.02;;
74471;SDS011;62920;53.572;10.050;2023-02-02T04:33:53;8.15;;;1.13;;
74471;SDS011;62920;53.572;10.050;2023-02-02T04:36:19;12.60;;;1.05;;
74471;SDS011;62920;53.572;10.050;2023-02-02T04:38:47;9.05;;;1.00;;
74471;SDS011;62920;53.572;10.050;2023-02-02T04:41:16;4.78;;;0.65;;
74471;SDS011;62920;53.572;10.050;2023-02-02T04:43:42;8.30;;;1.10;;
74471;SDS011;62920;53.572;10.050;2023-02-02T04:46:08;5.78;;;0.88;;
74471;SDS011;62920;53.572;10.050;2023-02-02T04:48:34;8.38;;;0.90;;
74471;SDS011;62920;53.572;10.050;2023-02-02T04:51:06;7.05;;;1.15;;
74471;SDS011;62920;53.572;10.050;2023-02-02T04:53:33;7.30;;;1.33;;
74471;SDS011;62920;53.572;10.050;2023-02-02T04:56:05;8.13;;;1.25;;
74471;SDS011;62920;53.572;10.050;2023-02-02T04:58:36;7.45;;;1.15;;
74471;SDS011;62920;53.572;10.050;2023-02-02T05:01:06;12.85;;;1.20;;
74471;SDS011;62920;53.572;10.050;2023-02-02T05:03:33;8.30;;;1.38;;
74471;SDS011;62920;53.572;10.050;2023-02-02T05:06:01;12.98;;;1.23;;
74471;SDS011;62920;53.572;10.050;2023-02-02T05:08:27;10.20;;;1.05;;
74471;SDS011;62920;53.572;10.050;2023-02-02T05:10:53;8.70;;;1.33;;
74471;SDS011;62920;53.572;10.050;2023-02-02T05:13:18;9.27;;;1.30;;
74471;SDS011;62920;53.572;10.050;2023-02-02T05:15:43;7.65;;;0.85;;
74471;SDS011;62920;53.572;10.050;2023-02-02T05:18:09;11.93;;;1.98;;
74471;SDS011;62920;53.572;10.050;2023-02-02T05:20:34;8.85;;;1.15;;
74471;SDS011;62920;53.572;10.050;2023-02-02T05:22:59;12.27;;;1.50;;
74471;SDS011;62920;53.572;10.050;2023-02-02T05:25:25;17.17;;;1.42;;
74471;SDS011;62920;53.572;10.050;2023-02-02T05:27:50;14.57;;;1.40;;
74471;SDS011;62920;53.572;10.050;2023-02-02T05:30:16;7.60;;;1.02;;
74471;SDS011;62920;53.572;10.050;2023-02-02T05:32:41;6.90;;;1.23;;
74471;SDS011;62920;53.572;10.050;2023-02-02T05:35:07;10.27;;;1.33;;
74471;SDS011;62920;53.572;10.050;2023-02-02T05:37:33;14.30;;;1.30;;
74471;SDS011;62920;53.572;10.050;2023-02-02T05:39:58;8.13;;;1.77;;
74471;SDS011;62920;53.572;10.050;2023-02-02T05:42:24;7.53;;;0.98;;
74471;SDS011;62920;53.572;10.050;2023-02-02T05:44:49;9.73;;;1.15;;
74471;SDS011;62920;53.572;10.050;2023-02-02T05:47:14;5.45;;;0.80;;
74471;SDS011;62920;53.572;10.050;2023-02-02T05:49:40;11.48;;;1.20;;
74471;SDS011;62920;53.572;10.050;2023-02-02T05:52:05;9.88;;;1.33;;
74471;SDS011;62920;53.572;10.050;2023-02-02T05:54:31;14.00;;;1.35;;
74471;SDS011;62920;53.572;10.050;2023-02-02T05:56:56;9.88;;;1.17;;
74471;SDS011;62920;53.572;10.050;2023-02-02T05:59:25;13.40;;;1.65;;
74471;SDS011;62920;53.572;10.050;2023-02-02T06:01:51;12.35;;;1.40;;
74471;SDS011;62920;53.572;10.050;2023-02-02T06:04:16;8.48;;;1.17;;
74471;SDS011;62920;53.572;10.050;2023-02-02T06:06:42;19.42;;;1.98;;
74471;SDS011;62920;53.572;10.050;2023-02-02T06:09:08;13.80;;;1.30;;
74471;SDS011;62920;53.572;10.050;2023-02-02T06:11:33;9.70;;;1.35;;
74471;SDS011;62920;53.572;10.050;2023-02-02T06:13:59;10.98;;;1.30;;
74471;SDS011;62920;53.572;10.050;2023-02-02T06:16:24;14.52;;;1.95;;
74471;SDS011;62920;53.572;10.050;2023-02-02T06:18:50;17.13;;;1.75;;
74471;SDS011;62920;53.572;10.050;2023-02-02T06:21:15;19.67;;;2.03;;
74471;SDS011;62920;53.572;10.050;2023-02-02T06:23:41;16.98;;;1.67;;
74471;SDS011;62920;53.572;10.050;2023-02-02T06:26:12;17.73;;;2.45;;
74471;SDS011;62920;53.572;10.050;2023-02-02T06:28:38;18.08;;;1.95;;
74471;SDS011;62920;53.572;10.050;2023-02-02T06:31:04;16.48;;;2.10;;
74471;SDS011;62920;53.572;10.050;2023-02-02T06:33:30;20.85;;;2.67;;
74471;SDS011;62920;53.572;10.050;2023-02-02T06:35:59;18.02;;;1.95;;
74471;SDS011;62920;53.572;10.050;2023-02-02T06:38:28;17.98;;;1.83;;
74471;SDS011;62920;53.572;10.050;2023-02-02T06:40:54;11.63;;;2.00;;
74471;SDS011;62920;53.572;10.050;2023-02-02T06:43:19;20.83;;;2.55;;
74471;SDS011;62920;53.572;10.050;2023-02-02T06:45:45;11.32;;;1.48;;
74471;SDS011;62920;53.572;10.050;2023-02-02T06:48:10;19.10;;;2.40;;
74471;SDS011;62920;53.572;10.050;2023-02-02T06:50:36;10.35;;;1.48;;
74471;SDS011;62920;53.572;10.050;2023-02-02T06:53:02;15.60;;;2.35;;
74471;SDS011;62920;53.572;10.050;2023-02-02T06:55:28;8.88;;;2.58;;
74471;SDS011;62920;53.572;10.050;2023-02-02T06:57:57;16.67;;;1.85;;
74471;SDS011;62920;53.572;10.050;2023-02-02T07:00:23;9.88;;;1.52;;
74471;SDS011;62920;53.572;10.050;2023-02-02T07:02:48;14.80;;;1.60;;
74471;SDS011;62920;53.572;10.050;2023-02-02T07:05:14;8.38;;;1.17;;
74471;SDS011;62920;53.572;10.050;2023-02-02T07:07:39;20.42;;;2.17;;
74471;SDS011;62920;53.572;10.050;2023-02-02T07:10:04;13.20;;;1.27;;
74471;SDS011;62920;53.572;10.050;2023-02-02T07:12:30;14.80;;;1.65;;
74471;SDS011;62920;53.572;10.050;2023-02-02T07:14:56;8.88;;;1.42;;
74471;SDS011;62920;53.572;10.050;2023-02-02T07:17:23;9.48;;;1.23;;
74471;SDS011;62920;53.572;10.050;2023-02-02T07:19:48;13.93;;;1.58;;
74471;SDS011;62920;53.572;10.050;2023-02-02T07:22:14;12.00;;;0.90;;
74471;SDS011;62920;53.572;10.050;2023-02-02T07:24:40;9.90;;;1.17;;
74471;SDS011;62920;53.572;10.050;2023-02-02T07:27:05;12.50;;;1.85;;
74471;SDS011;62920;53.572;10.050;2023-02-02T07:29:30;10.18;;;1.52;;
74471;SDS011;62920;53.572;10.050;2023-02-02T07:31:56;12.38;;;1.67;;
74471;SDS011;62920;53.572;10.050;2023-02-02T07:34:22;11.85;;;1.70;;
74471;SDS011;62920;53.572;10.050;2023-02-02T07:36:47;6.30;;;1.27;;
74471;SDS011;62920;53.572;10.050;2023-02-02T07:39:13;10.85;;;1.40;;
74471;SDS011;62920;53.572;10.050;2023-02-02T07:41:38;7.93;;;1.23;;
74471;SDS011;62920;53.572;10.050;2023-02-02T07:44:04;10.88;;;1.73;;
74471;SDS011;62920;53.572;10.050;2023-02-02T07:46:29;11.68;;;1.50;;
74471;SDS011;62920;53.572;10.050;2023-02-02T07:48:55;19.48;;;2.58;;
74471;SDS011;62920;53.572;10.050;2023-02-02T07:51:21;12.13;;;1.63;;
74471;SDS011;62920;53.572;10.050;2023-02-02T07:53:49;15.93;;;2.30;;
74471;SDS011;62920;53.572;10.050;2023-02-02T07:56:17;15.88;;;1.92;;
74471;SDS011;62920;53.572;10.050;2023-02-02T07:58:44;21.25;;;2.10;;
74471;SDS011;62920;53.572;10.050;2023-02-02T08:01:10;18.90;;;1.90;;
74471;SDS011;62920;53.572;10.050;2023-02-02T08:03:37;11.07;;;1.45;;
74471;SDS011;62920;53.572;10.050;2023-02-02T08:06:19;12.57;;;2.28;;
74471;SDS011;62920;53.572;10.050;2023-02-02T08:08:46;16.60;;;1.95;;
74471;SDS011;62920;53.572;10.050;2023-02-02T08:11:13;18.45;;;1.38;;
74471;SDS011;62920;53.572;10.050;2023-02-02T08:13:40;10.88;;;1.55;;
74471;SDS011;62920;53.572;10.050;2023-02-02T08:16:06;13.07;;;1.65;;
74471;SDS011;62920;53.572;10.050;2023-02-02T08:18:32;20.55;;;2.28;;
74471;SDS011;62920;53.572;10.050;2023-02-02T08:20:59;15.32;;;1.52;;
74471;SDS011;62920;53.572;10.050;2023-02-02T08:23:25;10.88;;;1.70;;
74471;SDS011;62920;53.572;10.050;2023-02-02T08:25:51;17.08;;;2.03;;
74471;SDS011;62920;53.572;10.050;2023-02-02T08:28:17;18.15;;;1.55;;
74471;SDS011;62920;53.572;10.050;2023-02-02T08:30:43;10.35;;;1.15;;
74471;SDS011;62920;53.572;10.050;2023-02-02T08:33:09;17.13;;;1.98;;
74471;SDS011;62920;53.572;10.050;2023-02-02T08:35:39;12.32;;;1.65;;
74471;SDS011;62920;53.572;10.050;2023-02-02T08:38:05;8.40;;;1.15;;
74471;SDS011;62920;53.572;10.050;2023-02-02T08:40:31;10.93;;;1.48;;
74471;SDS011;62920;53.572;10.050;2023-02-02T08:42:57;13.05;;;1.50;;
74471;SDS011;62920;53.572;10.050;2023-02-02T08:45:24;14.65;;;2.08;;
74471;SDS011;62920;53.572;10.050;2023-02-02T08:47:50;11.93;;;1.50;;
74471;SDS011;62920;53.572;10.050;2023-02-02T08:50:16;16.92;;;1.70;;
74471;SDS011;62920;53.572;10.050;2023-02-02T08:52:43;12.35;;;1.95;;
74471;SDS011;62920;53.572;10.050;2023-02-02T08:55:09;10.88;;;1.77;;
74471;SDS011;62920;53.572;10.050;2023-02-02T08:57:35;6.07;;;1.10;;
74471;SDS011;62920;53.572;10.050;2023-02-02T09:00:02;13.55;;;1.50;;
74471;SDS011;62920;53.572;10.050;2023-02-02T09:02:28;15.68;;;1.67;;
74471;SDS011;62920;53.572;10.050;2023-02-02T09:04:54;11.70;;;1.25;;
74471;SDS011;62920;53.572;10.050;2023-02-02T09:07:19;9.80;;;1.48;;
74471;SDS011;62920;53.572;10.050;2023-02-02T09:09:48;11.77;;;1.20;;
74471;SDS011;62920;53.572;10.050;2023-02-02T09:12:15;11.45;;;1.90;;
74471;SDS011;62920;53.572;10.050;2023-02-02T09:14:44;13.35;;;1.40;;
74471;SDS011;62920;53.572;10.050;2023-02-02T09:17:09;10.00;;;1.45;;
74471;SDS011;62920;53.572;10.050;2023-02-02T09:19:35;9.48;;;2.05;;
74471;SDS011;62920;53.572;10.050;2023-02-02T09:22:00;10.85;;;1.23;;
74471;SDS011;62920;53.572;10.050;2023-02-02T09:24:26;12.85;;;1.67;;
74471;SDS011;62920;53.572;10.050;2023-02-02T09:26:52;17.67;;;1.40;;
74471;SDS011;62920;53.572;10.050;2023-02-02T09:29:17;10.27;;;0.93;;
74471;SDS011;62920;53.572;10.050;2023-02-02T09:31:43;9.73;;;1.50;;
74471;SDS011;62920;53.572;10.050;2023-02-02T09:34:09;9.43;;;1.42;;
74471;SDS011;62920;53.572;10.050;2023-02-02T09:36:38;7.88;;;1.20;;
74471;SDS011;62920;53.572;10.050;2023-02-02T09:39:04;8.40;;;1.33;;
74471;SDS011;62920;53.572;10.050;2023-02-02T09:42:17;9.32;;;1.27;;
74471;SDS011;62920;53.572;10.050;2023-02-02T09:52:10;8.13;;;1.17;;
74471;SDS011;62920;53.572;10.050;2023-02-02T09:54:42;13.10;;;1.20;;
74471;SDS011;62920;53.572;10.050;2023-02-02T09:57:18;12.52;;;1.25;;
74471;SDS011;62920;53.572;10.050;2023-02-02T09:59:47;11.70;;;1.63;;
74471;SDS011;62920;53.572;10.050;2023-02-02T10:02:24;9.10;;;1.13;;
74471;SDS011;62920;53.572;10.050;2023-02-02T10:04:54;11.23;;;1.80;;
74471;SDS011;62920;53.572;10.050;2023-02-02T10:07:25;9.82;;;1.60;;
74471;SDS011;62920;53.572;10.050;2023-02-02T10:10:40;10.13;;;1.00;;
74471;SDS011;62920;53.572;10.050;2023-02-02T10:12:58;11.38;;;1.50;;
74471;SDS011;62920;53.572;10.050;2023-02-02T10:23:48;9.02;;;1.27;;
74471;SDS011;62920;53.572;10.050;2023-02-02T10:29:01;7.72;;;1.10;;
74471;SDS011;62920;53.572;10.050;2023-02-02T10:44:55;5.85;;;0.90;;
74471;SDS011;62920;53.572;10.050;2023-02-02T10:47:31;12.65;;;0.75;;
74471;SDS011;62920;53.572;10.050;2023-02-02T10:50:13;10.02;;;1.63;;
74471;SDS011;62920;53.572;10.050;2023-02-02T10:52:48;7.47;;;0.70;;
74471;SDS011;62920;53.572;10.050;2023-02-02T11:02:57;9.70;;;1.02;;
74471;SDS011;62920;53.572;10.050;2023-02-02T11:05:25;6.53;;;0.90;;
74471;SDS011;62920;53.572;10.050;2023-02-02T11:10:41;8.75;;;1.20;;
74471;SDS011;62920;53.572;10.050;2023-02-02T11:13:07;8.32;;;1.08;;
74471;SDS011;62920;53.572;10.050;2023-02-02T11:15:36;5.85;;;1.20;;
74471;SDS011;62920;53.572;10.050;2023-02-02T11:20:51;8.82;;;1.00;;
74471;SDS011;62920;53.572;10.050;2023-02-02T11:23:17;8.55;;;1.55;;
74471;SDS011;62920;53.572;10.050;2023-02-02T11:25:43;6.40;;;1.23;;
74471;SDS011;62920;53.572;10.050;2023-02-02T11:28:10;10.07;;;1.60;;
74471;SDS011;62920;53.572;10.050;2023-02-02T11:30:46;7.65;;;1.00;;
74471;SDS011;62920;53.572;10.050;2023-02-02T11:33:19;8.48;;;0.90;;
74471;SDS011;62920;53.572;10.050;2023-02-02T11:35:51;10.70;;;1.10;;
74471;SDS011;62920;53.572;10.050;2023-02-02T11:38:18;6.00;;;1.20;;
74471;SDS011;62920;53.572;10.050;2023-02-02T11:41:03;7.50;;;1.17;;
74471;SDS011;62920;53.572;10.050;2023-02-02T11:43:38;7.53;;;0.95;;
74471;SDS011;62920;53.572;10.050;2023-02-02T11:46:12;6.18;;;0.98;;
74471;SDS011;62920;53.572;10.050;2023-02-02T11:48:50;6.45;;;1.27;;
74471;SDS011;62920;53.572;10.050;2023-02-02T11:51:23;9.73;;;1.35;;
74471;SDS011;62920;53.572;10.050;2023-02-02T11:53:58;8.45;;;1.27;;
74471;SDS011;62920;53.572;10.050;2023-02-02T11:56:31;8.82;;;1.20;;
74471;SDS011;62920;53.572;10.050;2023-02-02T11:58:57;7.63;;;1.00;;
74471;SDS011;62920;53.572;10.050;2023-02-02T12:01:29;18.10;;;1.33;;
74471;SDS011;62920;53.572;10.050;2023-02-02T12:04:01;10.55;;;1.08;;
74471;SDS011;62920;53.572;10.050;2023-02-02T12:06:34;7.65;;;1.35;;
74471;SDS011;62920;53.572;10.050;2023-02-02T12:09:01;7.68;;;0.90;;
74471;SDS011;62920;53.572;10.050;2023-02-02T12:15:17;7.53;;;1.05;;
74471;SDS011;62920;53.572;10.050;2023-02-02T12:18:09;10.50;;;1.02;;
74471;SDS011;62920;53.572;10.050;2023-02-02T12:31:58;4.78;;;0.63;;
74471;SDS011;62920;53.572;10.050;2023-02-02T13:10:00;9.38;;;0.80;;
74471;SDS011;62920;53.572;10.050;2023-02-02T13:12:33;4.55;;;0.68;;
74471;SDS011;62920;53.572;10.050;2023-02-02T13:15:05;4.10;;;0.93;;
74471;SDS011;62920;53.572;10.050;2023-02-02T13:17:35;4.80;;;0.70;;
74471;SDS011;62920;53.572;10.050;2023-02-02T13:20:48;5.32;;;0.70;;
74471;SDS011;62920;53.572;10.050;2023-02-02T13:23:08;6.25;;;0.90;;
74471;SDS011;62920;53.572;10.050;2023-02-02T13:25:51;5.20;;;0.70;;
74471;SDS011;62920;53.572;10.050;2023-02-02T13:28:34;4.18;;;0.80;;
74471;SDS011;62920;53.572;10.050;2023-02-02T13:31:01;10.00;;;1.58;;
74471;SDS011;62920;53.572;10.050;2023-02-02T13:33:33;3.22;;;0.70;;
74471;SDS011;62920;53.572;10.050;2023-02-02T13:36:01;6.72;;;0.90;;
74471;SDS011;62920;53.572;10.050;2023-02-02T13:38:33;7.53;;;1.15;;
74471;SDS011;62920;53.572;10.050;2023-02-02T13:41:06;6.28;;;0.90;;
74471;SDS011;62920;53.572;10.050;2023-02-02T13:49:15;2.40;;;0.70;;
74471;SDS011;62920;53.572;10.050;2023-02-02T13:51:54;6.38;;;0.75;;
74471;SDS011;62920;53.572;10.050;2023-02-02T13:57:12;8.63;;;1.30;;
74471;SDS011;62920;53.572;10.050;2023-02-02T14:00:12;5.45;;;1.00;;
74471;SDS011;62920;53.572;10.050;2023-02-02T14:05:39;9.35;;;1.27;;
74471;SDS011;62920;53.572;10.050;2023-02-02T14:08:16;6.95;;;1.60;;
74471;SDS011;62920;53.572;10.050;2023-02-02T14:13:22;7.15;;;1.08;;
74471;SDS011;62920;53.572;10.050;2023-02-02T14:16:18;3.13;;;0.63;;
74471;SDS011;62920;53.572;10.050;2023-02-02T14:19:04;6.60;;;1.05;;
74471;SDS011;62920;53.572;10.050;2023-02-02T14:26:48;2.80;;;0.38;;
74471;SDS011;62920;53.572;10.050;2023-02-02T14:32:00;4.82;;;0.60;;
74471;SDS011;62920;53.572;10.050;2023-02-02T14:34:44;5.07;;;0.57;;
74471;SDS011;62920;53.572;10.050;2023-02-02T14:37:18;5.15;;;0.80;;
74471;SDS011;62920;53.572;10.050;2023-02-02T14:48:37;7.10;;;0.65;;
74471;SDS011;62920;53.572;10.050;2023-02-02T14:58:30;3.78;;;0.50;;
74471;SDS011;62920;53.572;10.050;2023-02-02T15:01:04;4.28;;;0.50;;
74471;SDS011;62920;53.572;10.050;2023-02-02T15:06:33;3.85;;;0.80;;
74471;SDS011;62920;53.572;10.050;2023-02-02T15:20:12;3.70;;;0.63;;
74471;SDS011;62920;53.572;10.050;2023-02-02T15:28:36;5.85;;;0.50;;
74471;SDS011;62920;53.572;10.050;2023-02-02T15:33:41;3.92;;;0.70;;
74471;SDS011;62920;53.572;10.050;2023-02-02T15:36:13;2.78;;;0.52;;
74471;SDS011;62920;53.572;10.050;2023-02-02T15:38:57;3.88;;;1.00;;
74471;SDS011;62920;53.572;10.050;2023-02-02T15:41:35;6.30;;;1.17;;
74471;SDS011;62920;53.572;10.050;2023-02-02T15:44:16;9.70;;;0.85;;
74471;SDS011;62920;53.572;10.050;2023-02-02T15:46:45;7.38;;;0.60;;
74471;SDS011;62920;53.572;10.050;2023-02-02T15:49:15;6.85;;;0.75;;
74471;SDS011;62920;53.572;10.050;2023-02-02T15:51:57;6.20;;;1.00;;
74471;SDS011;62920;53.572;10.050;2023-02-02T15:54:27;6.53;;;1.05;;
74471;SDS011;62920;53.572;10.050;2023-02-02T15:56:55;4.93;;;0.90;;
74471;SDS011;62920;53.572;10.050;2023-02-02T15:59:28;9.35;;;1.10;;
74471;SDS011;62920;53.572;10.050;2023-02-02T16:04:40;5.90;;;0.95;;
74471;SDS011;62920;53.572;10.050;2023-02-02T16:07:13;7.18;;;1.13;;
74471;SDS011;62920;53.572;10.050;2023-02-02T16:09:41;5.50;;;0.90;;
74471;SDS011;62920;53.572;10.050;2023-02-02T16:12:20;8.68;;;1.10;;
74471;SDS011;62920;53.572;10.050;2023-02-02T16:14:50;8.63;;;0.98;;
74471;SDS011;62920;53.572;10.050;2023-02-02T16:17:18;6.50;;;1.20;;
74471;SDS011;62920;53.572;10.050;2023-02-02T16:20:04;7.20;;;0.90;;
74471;SDS011;62920;53.572;10.050;2023-02-02T16:22:35;6.15;;;0.90;;
74471;SDS011;62920;53.572;10.050;2023-02-02T16:25:04;13.98;;;1.10;;
74471;SDS011;62920;53.572;10.050;2023-02-02T16:27:36;7.75;;;1.00;;
74471;SDS011;62920;53.572;10.050;2023-02-02T16:30:06;4.60;;;0.70;;
74471;SDS011;62920;53.572;10.050;2023-02-02T16:32:36;6.22;;;0.95;;
74471;SDS011;62920;53.572;10.050;2023-02-02T16:35:22;5.00;;;0.90;;
74471;SDS011;62920;53.572;10.050;2023-02-02T16:38:10;6.47;;;1.17;;
74471;SDS011;62920;53.572;10.050;2023-02-02T16:40:36;4.07;;;0.88;;
74471;SDS011;62920;53.572;10.050;2023-02-02T16:43:05;7.07;;;0.90;;
74471;SDS011;62920;53.572;10.050;2023-02-02T16:48:56;5.20;;;0.98;;
74471;SDS011;62920;53.572;10.050;2023-02-02T16:54:26;10.27;;;1.50;;
74471;SDS011;62920;53.572;10.050;2023-02-02T16:56:33;6.30;;;0.90;;
74471;SDS011;62920;53.572;10.050;2023-02-02T16:59:04;8.13;;;1.33;;
74471;SDS011;62920;53.572;10.050;2023-02-02T17:01:42;7.47;;;1.75;;
74471;SDS011;62920;53.572;10.050;2023-02-02T17:04:23;17.35;;;1.70;;
74471;SDS011;62920;53.572;10.050;2023-02-02T17:06:50;9.60;;;1.80;;
74471;SDS011;62920;53.572;10.050;2023-02-02T17:09:25;4.38;;;1.42;;
74471;SDS011;62920;53.572;10.050;2023-02-02T17:14:29;6.70;;;1.10;;
74471;SDS011;62920;53.572;10.050;2023-02-02T17:17:00;11.77;;;1.50;;
74471;SDS011;62920;53.572;10.050;2023-02-02T17:19:27;12.45;;;1.70;;
74471;SDS011;62920;53.572;10.050;2023-02-02T17:21:53;8.65;;;1.33;;
74471;SDS011;62920;53.572;10.050;2023-02-02T17:24:19;5.10;;;1.40;;
74471;SDS011;62920;53.572;10.050;2023-02-02T17:26:44;8.80;;;1.33;;
74471;SDS011;62920;53.572;10.050;2023-02-02T17:29:12;9.48;;;1.95;;
74471;SDS011;62920;53.572;10.050;2023-02-02T17:31:40;8.98;;;1.40;;
74471;SDS011;62920;53.572;10.050;2023-02-02T17:34:09;4.78;;;1.15;;
74471;SDS011;62920;53.572;10.050;2023-02-02T17:36:36;14.55;;;2.28;;
74471;SDS011;62920;53.572;10.050;2023-02-02T17:39:02;7.05;;;1.35;;
74471;SDS011;62920;53.572;10.050;2023-02-02T17:41:28;9.05;;;1.60;;
74471;SDS011;62920;53.572;10.050;2023-02-02T17:43:53;6.28;;;1.40;;
74471;SDS011;62920;53.572;10.050;2023-02-02T17:46:18;9.75;;;1.23;;
74471;SDS011;62920;53.572;10.050;2023-02-02T17:48:44;4.82;;;1.50;;
74471;SDS011;62920;53.572;10.050;2023-02-02T17:51:13;12.35;;;2.20;;